createdAt,value
2022-08-07T00:00:26.066Z,1.50
2022-08-07T00:02:53.715Z,1.40
2022-08-07T00:05:23.686Z,1.60
2022-08-07T00:07:58.503Z,1.63
2022-08-07T00:10:31.206Z,1.50
2022-08-07T00:13:17.404Z,1.33
2022-08-07T00:15:52.706Z,1.75
2022-08-07T00:18:25.057Z,2.00
2022-08-07T00:21:03.312Z,1.73
2022-08-07T00:23:39.554Z,1.60
2022-08-07T00:26:12.971Z,1.70
2022-08-07T00:28:55.675Z,1.83
2022-08-07T00:31:37.558Z,1.88
2022-08-07T00:34:08.845Z,1.55
2022-08-07T00:36:43.018Z,1.85
2022-08-07T00:39:16.605Z,1.80
2022-08-07T00:42:02.235Z,1.55
2022-08-07T00:44:38.380Z,2.00
2022-08-07T00:47:15.954Z,1.70
2022-08-07T00:50:20.235Z,1.83
2022-08-07T00:52:47.262Z,1.35
2022-08-07T00:55:17.248Z,1.42
2022-08-07T00:57:56.017Z,1.77
2022-08-07T01:00:24.042Z,1.25
2022-08-07T01:02:52.192Z,1.70
2022-08-07T01:05:21.158Z,1.83
2022-08-07T01:07:52.164Z,1.60
2022-08-07T01:10:20.005Z,1.88
2022-08-07T01:12:53.756Z,1.55
2022-08-07T01:16:00.688Z,1.50
2022-08-07T01:18:11.286Z,1.80
2022-08-07T01:20:57.329Z,1.50
2022-08-07T01:23:36.843Z,1.35
2022-08-07T01:26:11.998Z,1.60
2022-08-07T01:28:45.988Z,1.75
2022-08-07T01:31:15.298Z,1.67
2022-08-07T01:33:53.613Z,1.83
2022-08-07T01:36:33.557Z,1.50
2022-08-07T01:39:01.537Z,1.73
2022-08-07T01:44:06.548Z,1.40
2022-08-07T01:46:34.468Z,1.77
2022-08-07T01:49:02.407Z,1.55
2022-08-07T01:52:04.277Z,1.77
2022-08-07T01:54:36.435Z,1.70
2022-08-07T01:58:05.988Z,1.23
2022-08-07T02:00:29.465Z,1.67
2022-08-07T02:03:18.041Z,1.73
2022-08-07T02:05:59.664Z,1.48
2022-08-07T02:08:33.656Z,1.52
2022-08-07T02:11:04.834Z,1.55
2022-08-07T02:13:57.274Z,1.70
2022-08-07T02:16:28.816Z,1.52
2022-08-07T02:19:05.544Z,1.80
2022-08-07T02:21:56.380Z,1.40
2022-08-07T02:24:25.630Z,1.70
2022-08-07T02:27:01.361Z,1.40
2022-08-07T02:29:30.716Z,1.50
2022-08-07T02:32:01.011Z,1.25
2022-08-07T02:34:30.123Z,1.48
2022-08-07T02:37:00.796Z,1.38
2022-08-07T02:39:43.783Z,1.85
2022-08-07T02:42:18.450Z,1.65
2022-08-07T02:44:49.843Z,1.60
2022-08-07T02:47:23.637Z,1.35
2022-08-07T02:49:57.614Z,1.90
2022-08-07T02:52:55.080Z,1.40
2022-08-07T02:56:04.226Z,1.73
2022-08-07T02:58:27.238Z,1.52
2022-08-07T03:00:57.962Z,1.50
2022-08-07T03:03:49.342Z,1.50
2022-08-07T03:06:25.491Z,1.52
2022-08-07T03:08:59.416Z,1.60
2022-08-07T03:11:28.200Z,1.40
2022-08-07T03:13:57.522Z,1.52
2022-08-07T03:16:32.711Z,1.83
2022-08-07T03:19:00.718Z,1.95
2022-08-07T03:21:28.649Z,1.30
2022-08-07T03:24:19.790Z,1.65
2022-08-07T03:26:58.505Z,1.60
2022-08-07T03:29:49.410Z,1.60
2022-08-07T03:32:58.286Z,1.52
2022-08-07T03:35:43.858Z,1.38
2022-08-07T03:38:17.286Z,1.50
2022-08-07T03:40:57.119Z,1.90
2022-08-07T03:43:26.806Z,1.55
2022-08-07T03:46:01.451Z,1.60
2022-08-07T03:48:32.068Z,1.55
2022-08-07T03:51:02.072Z,1.63
2022-08-07T03:54:01.993Z,1.33
2022-08-07T03:56:33.362Z,1.60
2022-08-07T03:59:09.858Z,1.52
2022-08-07T04:01:45.354Z,1.92
2022-08-07T04:04:17.168Z,2.35
2022-08-07T04:06:45.660Z,2.90
2022-08-07T04:09:15.995Z,2.42
2022-08-07T04:12:26.933Z,2.40
2022-08-07T04:14:38.995Z,2.65
2022-08-07T04:17:20.499Z,2.17
2022-08-07T04:19:54.682Z,2.35
2022-08-07T04:22:27.588Z,2.03
2022-08-07T04:25:01.684Z,1.97
2022-08-07T04:27:36.227Z,2.70
2022-08-07T04:30:21.719Z,2.00
2022-08-07T04:33:00.343Z,2.47
2022-08-07T04:35:28.659Z,1.90
2022-08-07T04:38:13.168Z,2.22
2022-08-07T04:40:52.920Z,1.65
2022-08-07T04:44:14.658Z,1.83
2022-08-07T04:46:29.577Z,1.80
2022-08-07T04:49:38.817Z,1.67
2022-08-07T04:52:46.828Z,1.80
2022-08-07T04:58:16.754Z,1.80
2022-08-07T04:59:15.843Z,1.85
2022-08-07T05:01:43.566Z,1.80
2022-08-07T05:04:26.315Z,2.00
2022-08-07T05:07:20.533Z,2.03
2022-08-07T05:10:02.699Z,1.45
2022-08-07T05:12:51.401Z,1.63
2022-08-07T05:15:27.646Z,1.35
2022-08-07T05:18:09.018Z,1.73
2022-08-07T05:20:45.804Z,1.45
2022-08-07T05:23:48.513Z,1.50
2022-08-07T05:26:24.142Z,1.48
2022-08-07T05:28:55.710Z,1.60
2022-08-07T05:31:34.618Z,1.60
2022-08-07T05:34:05.611Z,1.77
2022-08-07T05:36:49.129Z,1.60
2022-08-07T05:40:05.547Z,1.38
2022-08-07T05:42:12.540Z,1.88
2022-08-07T05:44:41.539Z,2.00
2022-08-07T05:47:38.608Z,1.73
2022-08-07T05:50:05.218Z,1.55
2022-08-07T05:52:33.066Z,1.70
2022-08-07T05:55:10.181Z,1.67
2022-08-07T05:57:41.958Z,1.13
2022-08-07T06:00:16.628Z,1.77
2022-08-07T06:02:51.723Z,2.00
2022-08-07T06:05:20.488Z,2.50
2022-08-07T06:08:14.726Z,1.75
2022-08-07T06:10:46.955Z,1.67
2022-08-07T06:13:19.054Z,1.58
2022-08-07T06:16:01.373Z,1.83
2022-08-07T06:18:32.780Z,1.92
2022-08-07T06:22:16.968Z,1.60
2022-08-07T06:24:46.256Z,1.60
2022-08-07T06:26:41.274Z,1.55
2022-08-07T06:29:09.526Z,1.50
2022-08-07T06:31:49.833Z,1.30
2022-08-07T06:34:19.433Z,1.55
2022-08-07T06:36:48.156Z,1.67
2022-08-07T06:40:16.173Z,1.60
2022-08-07T06:42:17.837Z,1.30
2022-08-07T06:44:51.108Z,1.42
2022-08-07T06:47:19.713Z,1.38
2022-08-07T06:49:52.261Z,1.83
2022-08-07T06:52:35.732Z,1.40
2022-08-07T06:55:33.101Z,1.83
2022-08-07T06:58:10.427Z,1.52
2022-08-07T07:00:43.147Z,1.40
2022-08-07T07:03:14.443Z,1.48
2022-08-07T07:06:03.252Z,1.60
2022-08-07T07:08:33.360Z,1.52
2022-08-07T07:11:13.161Z,1.60
2022-08-07T07:13:57.662Z,1.88
2022-08-07T07:16:45.173Z,1.65
2022-08-07T07:19:55.071Z,1.48
2022-08-07T07:22:36.072Z,1.88
2022-08-07T07:26:30.793Z,1.70
2022-08-07T07:28:42.484Z,1.60
2022-08-07T07:31:39.830Z,1.80
2022-08-07T07:34:18.277Z,1.40
2022-08-07T07:36:54.026Z,1.58
2022-08-07T07:39:25.630Z,1.38
2022-08-07T07:42:08.764Z,1.45
2022-08-07T07:44:49.465Z,1.30
2022-08-07T07:47:23.794Z,1.85
2022-08-07T07:50:33.579Z,1.42
2022-08-07T07:52:44.172Z,1.40
2022-08-07T07:55:18.046Z,1.50
2022-08-07T07:57:53.669Z,1.70
2022-08-07T08:00:31.228Z,1.40
2022-08-07T08:03:16.823Z,1.92
2022-08-07T08:05:57.905Z,1.70
2022-08-07T08:08:35.015Z,1.70
2022-08-07T08:11:16.182Z,1.20
2022-08-07T08:13:53.951Z,1.25
2022-08-07T08:16:35.226Z,1.55
2022-08-07T08:19:17.719Z,1.60
2022-08-07T08:22:15.948Z,1.60
2022-08-07T08:25:24.943Z,1.60
2022-08-07T08:28:01.903Z,1.40
2022-08-07T08:30:35.061Z,1.45
2022-08-07T08:33:16.802Z,1.35
2022-08-07T08:35:49.899Z,2.00
2022-08-07T08:38:25.790Z,1.35
2022-08-07T08:41:23.360Z,1.77
2022-08-07T08:44:03.455Z,1.42
2022-08-07T08:47:00.399Z,1.30
2022-08-07T08:50:02.677Z,1.55
2022-08-07T08:52:53.797Z,1.75
2022-08-07T08:55:55.018Z,1.75
2022-08-07T08:58:50.566Z,1.35
2022-08-07T09:01:53.373Z,1.40
2022-08-07T09:04:57.958Z,1.75
2022-08-07T09:07:58.647Z,1.70
2022-08-07T09:11:01.926Z,1.67
2022-08-07T09:13:36.809Z,1.50
2022-08-07T09:16:33.775Z,1.40
2022-08-07T09:19:52.985Z,1.40
2022-08-07T09:24:33.193Z,1.75
2022-08-07T09:26:05.947Z,2.80
2022-08-07T09:30:01.361Z,1.95
2022-08-07T09:32:18.569Z,2.20
2022-08-07T09:36:04.549Z,1.85
2022-08-07T09:38:23.196Z,2.10
2022-08-07T09:41:15.927Z,1.67
2022-08-07T09:44:06.755Z,1.77
2022-08-07T09:47:49.909Z,1.75
2022-08-07T09:50:30.328Z,1.50
2022-08-07T09:53:04.733Z,1.38
2022-08-07T09:56:05.253Z,1.77
2022-08-07T09:59:14.030Z,2.08
2022-08-07T10:02:53.681Z,1.90
2022-08-07T10:06:01.260Z,1.52
2022-08-07T10:09:00.283Z,1.60
2022-08-07T10:12:11.829Z,1.88
2022-08-07T10:15:27.465Z,1.52
2022-08-07T10:18:31.552Z,1.52
2022-08-07T10:22:12.313Z,1.52
2022-08-07T10:24:24.422Z,1.80
2022-08-07T10:27:18.696Z,1.80
2022-08-07T10:30:12.893Z,2.00
2022-08-07T10:33:05.957Z,1.52
2022-08-07T10:35:54.995Z,1.35
2022-08-07T10:38:36.121Z,1.73
2022-08-07T10:41:51.558Z,1.48
2022-08-07T10:45:06.140Z,1.58
2022-08-07T10:47:52.686Z,1.30
2022-08-07T10:50:58.405Z,1.80
2022-08-07T10:53:41.842Z,1.30
2022-08-07T10:56:59.056Z,1.20
2022-08-07T11:00:36.555Z,1.30
2022-08-07T11:03:28.024Z,1.63
2022-08-07T11:06:42.088Z,1.50
2022-08-07T11:10:07.276Z,1.60
2022-08-07T11:12:32.176Z,1.40
2022-08-07T11:15:17.287Z,1.48
2022-08-07T11:17:56.717Z,1.60
2022-08-07T11:20:59.262Z,1.50
2022-08-07T11:23:56.128Z,1.15
2022-08-07T11:26:53.880Z,1.60
2022-08-07T11:29:42.516Z,1.45
2022-08-07T11:32:30.244Z,1.60
2022-08-07T11:35:16.655Z,1.27
2022-08-07T11:38:12.437Z,1.20
2022-08-07T11:41:03.268Z,1.60
2022-08-07T11:44:18.693Z,1.52
2022-08-07T11:48:29.535Z,1.50
2022-08-07T11:51:41.607Z,1.65
2022-08-07T11:55:18.584Z,1.80
2022-08-07T11:58:36.570Z,1.70
2022-08-07T12:01:06.720Z,1.58
2022-08-07T12:04:57.176Z,1.65
2022-08-07T12:07:59.551Z,1.60
2022-08-07T12:10:47.143Z,1.40
2022-08-07T12:13:47.527Z,1.30
2022-08-07T12:16:40.995Z,1.55
2022-08-07T12:19:35.967Z,1.90
2022-08-07T12:22:55.927Z,1.27
2022-08-07T12:26:23.461Z,1.70
2022-08-07T12:29:38.401Z,1.40
2022-08-07T12:32:22.717Z,1.60
2022-08-07T12:34:55.636Z,2.20
2022-08-07T12:37:27.977Z,1.50
2022-08-07T12:40:46.681Z,1.50
2022-08-07T12:43:10.840Z,1.55
2022-08-07T12:46:03.214Z,1.58
2022-08-07T12:49:39.729Z,2.13
2022-08-07T12:52:19.436Z,1.65
2022-08-07T12:55:22.422Z,2.03
2022-08-07T12:58:13.619Z,1.90
2022-08-07T13:01:04.684Z,1.65
2022-08-07T13:04:05.423Z,1.67
2022-08-07T13:07:01.090Z,1.98
2022-08-07T13:10:18.963Z,1.88
2022-08-07T13:13:48.698Z,1.88
2022-08-07T13:16:25.738Z,1.75
2022-08-07T13:19:50.316Z,1.77
2022-08-07T13:22:52.577Z,1.92
2022-08-07T13:25:34.912Z,1.90
2022-08-07T13:28:18.471Z,1.60
2022-08-07T13:31:01.602Z,1.65
2022-08-07T13:34:33.919Z,1.98
2022-08-07T13:40:33.806Z,1.65
2022-08-07T13:42:35.220Z,1.70
2022-08-07T13:45:21.069Z,2.00
2022-08-07T13:48:05.454Z,1.95
2022-08-07T13:50:44.980Z,1.40
2022-08-07T13:53:36.066Z,1.83
2022-08-07T13:56:35.790Z,1.75
2022-08-07T13:59:33.284Z,1.33
2022-08-07T14:02:07.800Z,1.20
2022-08-07T14:04:47.495Z,1.50
2022-08-07T14:07:23.726Z,1.20
2022-08-07T14:10:21.645Z,1.30
2022-08-07T14:13:01.357Z,1.40
2022-08-07T14:15:43.847Z,1.20
2022-08-07T14:18:30.654Z,1.30
2022-08-07T14:22:41.137Z,1.42
2022-08-07T14:24:09.042Z,1.38
2022-08-07T14:28:09.805Z,1.00
2022-08-07T14:30:05.442Z,1.10
2022-08-07T14:33:05.388Z,1.23
2022-08-07T14:35:45.691Z,1.20
2022-08-07T14:38:26.095Z,1.58
2022-08-07T14:41:04.076Z,1.38
2022-08-07T14:43:58.429Z,1.00
2022-08-07T14:49:57.665Z,1.30
2022-08-07T14:52:10.622Z,1.00
2022-08-07T14:54:42.952Z,1.30
2022-08-07T14:57:15.016Z,1.08
2022-08-07T15:02:39.305Z,1.60
2022-08-07T15:05:20.140Z,1.08
2022-08-07T15:07:51.826Z,1.30
2022-08-07T15:10:25.966Z,1.23
2022-08-07T15:13:19.766Z,1.40
2022-08-07T15:15:53.601Z,1.30
2022-08-07T15:18:41.610Z,1.23
2022-08-07T15:21:58.820Z,1.27
2022-08-07T15:25:15.253Z,1.10
2022-08-07T15:27:34.708Z,1.30
2022-08-07T15:30:16.475Z,1.42
2022-08-07T15:33:01.349Z,1.30
2022-08-07T15:38:30.706Z,1.27
2022-08-07T15:41:23.849Z,1.30
2022-08-07T15:44:07.110Z,1.40
2022-08-07T15:46:47.432Z,1.23
2022-08-07T15:52:15.469Z,1.70
2022-08-07T15:54:48.930Z,1.52
2022-08-07T15:57:39.308Z,1.58
2022-08-07T16:00:31.620Z,1.25
2022-08-07T16:03:21.640Z,3.08
2022-08-07T16:06:09.476Z,4.07
2022-08-07T16:08:42.577Z,2.83
2022-08-07T16:11:41.676Z,4.43
2022-08-07T16:18:02.087Z,2.92
2022-08-07T16:20:43.211Z,2.53
2022-08-07T16:24:02.647Z,4.38
2022-08-07T16:27:00.017Z,4.55
2022-08-07T16:30:11.406Z,3.72
2022-08-07T16:32:46.494Z,2.60
2022-08-07T16:35:58.906Z,1.90
2022-08-07T16:39:03.129Z,2.15
2022-08-07T16:42:04.272Z,2.20
2022-08-07T16:45:19.135Z,2.13
2022-08-07T16:48:08.953Z,1.58
2022-08-07T16:51:21.646Z,1.80
2022-08-07T16:54:06.395Z,2.00
2022-08-07T16:56:49.535Z,2.00
2022-08-07T16:59:52.220Z,2.20
2022-08-07T17:02:53.517Z,2.15
2022-08-07T17:06:02.139Z,2.03
2022-08-07T17:09:09.914Z,2.10
2022-08-07T17:12:01.340Z,2.05
2022-08-07T17:15:15.502Z,2.40
2022-08-07T17:17:48.865Z,1.88
2022-08-07T17:20:37.780Z,2.17
2022-08-07T17:23:32.279Z,1.60
2022-08-07T17:26:23.430Z,2.05
2022-08-07T17:30:12.421Z,2.00
2022-08-07T17:32:52.962Z,1.48
2022-08-07T17:35:54.554Z,1.85
2022-08-07T17:38:57.159Z,2.10
2022-08-07T17:42:04.156Z,2.10
2022-08-07T17:44:51.633Z,2.17
2022-08-07T17:47:54.301Z,1.90
2022-08-07T17:50:47.344Z,2.58
2022-08-07T17:54:00.853Z,2.45
2022-08-07T17:56:49.626Z,2.70
2022-08-07T18:00:05.095Z,2.90
2022-08-07T18:03:18.499Z,3.05
2022-08-07T18:06:01.959Z,2.95
2022-08-07T18:09:02.069Z,2.65
2022-08-07T18:12:17.987Z,3.20
2022-08-07T18:14:54.923Z,3.92
2022-08-07T18:19:02.542Z,3.67
2022-08-07T18:21:27.508Z,3.97
2022-08-07T18:24:09.041Z,3.92
2022-08-07T18:27:17.931Z,3.70
2022-08-07T18:30:31.501Z,3.85
2022-08-07T18:33:54.957Z,3.67
2022-08-07T18:36:58.652Z,3.63
2022-08-07T18:40:42.795Z,3.30
2022-08-07T18:43:51.407Z,4.15
2022-08-07T18:46:37.278Z,4.30
2022-08-07T18:50:31.056Z,4.50
2022-08-07T18:52:52.643Z,4.28
2022-08-07T18:58:55.067Z,5.00
2022-08-07T19:02:20.055Z,4.57
2022-08-07T19:06:02.137Z,4.80
2022-08-07T19:08:46.588Z,4.85
2022-08-07T19:11:34.973Z,4.68
2022-08-07T19:14:16.994Z,4.50
2022-08-07T19:17:07.576Z,5.07
2022-08-07T19:20:28.807Z,4.65
2022-08-07T19:23:57.243Z,4.57
2022-08-07T19:26:23.394Z,4.57
2022-08-07T19:31:03.861Z,5.47
2022-08-07T19:32:17.157Z,4.90
2022-08-07T19:35:08.321Z,5.43
2022-08-07T19:37:57.273Z,5.65
2022-08-07T19:40:49.934Z,5.07
2022-08-07T19:43:44.128Z,5.53
2022-08-07T19:46:18.874Z,4.85
2022-08-07T19:49:06.765Z,5.30
2022-08-07T19:51:53.189Z,4.65
2022-08-07T19:54:35.150Z,4.90
2022-08-07T19:58:03.625Z,5.85
2022-08-07T20:00:12.769Z,4.32
2022-08-07T20:03:34.076Z,4.32
2022-08-07T20:06:15.373Z,4.28
2022-08-07T20:09:03.063Z,4.75
2022-08-07T20:12:01.307Z,4.20
2022-08-07T20:14:54.085Z,4.70
2022-08-07T20:17:31.177Z,3.97
2022-08-07T20:20:02.637Z,4.53
2022-08-07T20:22:34.466Z,4.18
2022-08-07T20:25:12.784Z,3.70
2022-08-07T20:27:58.700Z,3.90
2022-08-07T20:30:37.591Z,4.47
2022-08-07T20:33:09.205Z,3.77
2022-08-07T20:36:03.575Z,3.80
2022-08-07T20:38:32.765Z,4.10
2022-08-07T20:41:03.634Z,3.83
2022-08-07T20:43:34.345Z,3.83
2022-08-07T20:46:27.191Z,4.18
2022-08-07T20:49:59.989Z,3.80
2022-08-07T20:51:50.577Z,4.22
2022-08-07T20:54:30.230Z,3.97
2022-08-07T20:57:08.397Z,4.18
2022-08-07T21:00:08.381Z,4.20
2022-08-07T21:02:55.215Z,4.28
2022-08-07T21:05:50.551Z,4.13
2022-08-07T21:08:44.684Z,4.47
2022-08-07T21:11:21.934Z,4.47
2022-08-07T21:14:33.459Z,4.05
2022-08-07T21:18:00.646Z,4.50
2022-08-07T21:20:00.705Z,4.55
2022-08-07T21:22:39.600Z,4.47
2022-08-07T21:25:19.792Z,4.30
2022-08-07T21:28:06.275Z,4.22
2022-08-07T21:31:15.152Z,4.00
2022-08-07T21:33:54.913Z,3.95
2022-08-07T21:36:59.197Z,4.47
2022-08-07T21:40:05.877Z,3.88
2022-08-07T21:42:46.077Z,3.90
2022-08-07T21:46:08.153Z,3.88
2022-08-07T21:48:29.329Z,3.53
2022-08-07T21:54:54.996Z,3.65
2022-08-07T21:57:52.167Z,3.53
2022-08-07T22:00:25.272Z,3.47
2022-08-07T22:03:30.718Z,3.88
2022-08-07T22:06:30.424Z,3.42
2022-08-07T22:09:13.707Z,3.75
2022-08-07T22:12:04.925Z,3.42
2022-08-07T22:15:02.612Z,4.03
2022-08-07T22:18:16.907Z,3.85
2022-08-07T22:21:20.951Z,3.58
2022-08-07T22:24:02.417Z,3.25
2022-08-07T22:26:51.605Z,3.10
2022-08-07T22:29:48.274Z,3.42
2022-08-07T22:32:46.963Z,3.17
2022-08-07T22:35:17.855Z,3.83
2022-08-07T22:38:25.768Z,3.20
2022-08-07T22:41:02.859Z,3.30
2022-08-07T22:43:50.568Z,3.13
2022-08-07T22:47:02.808Z,3.70
2022-08-07T22:49:39.663Z,3.08
2022-08-07T22:52:52.638Z,3.25
2022-08-07T22:56:01.595Z,3.05
2022-08-07T22:58:55.300Z,3.47
2022-08-07T23:02:03.869Z,2.95
2022-08-07T23:06:09.940Z,2.90
2022-08-07T23:08:31.285Z,3.00
2022-08-07T23:11:13.377Z,2.85
2022-08-07T23:14:19.598Z,2.30
2022-08-07T23:17:15.859Z,2.60
2022-08-07T23:20:51.437Z,2.72
2022-08-07T23:24:05.935Z,2.80
2022-08-07T23:27:07.844Z,2.45
2022-08-07T23:30:37.524Z,2.78
2022-08-07T23:34:22.710Z,2.50
2022-08-07T23:37:19.301Z,2.70
2022-08-07T23:40:17.334Z,2.72
2022-08-07T23:43:38.013Z,3.00
2022-08-07T23:46:39.623Z,2.53
2022-08-07T23:49:49.999Z,3.13
2022-08-07T23:53:05.616Z,2.50
2022-08-07T23:56:01.272Z,2.70
